Weather reports worldwide

Advertisment
Zugspitze, Germany (10961): temperature & dewpoint: 18.06.2018 11:00:00 - 24.06.2018 11:00:00 (CEST)Zugspitze, Germany (10961): wind speed & gusts: 18.06.2018 11:00:00 - 24.06.2018 11:00:00 (CEST)Zugspitze, Germany (10961): wind direction: 18.06.2018 11:00:00 - 24.06.2018 11:00:00 (CEST)Zugspitze, Germany (10961): sunshine duration: 18.06.2018 11:00:00 - 24.06.2018 11:00:00 (CEST)
Date & Time tt [°C] td [°C] ff [km/h] ff [kn] fx [km/h] fx [kn] dd sd [min]
24.06.2018 11:00:00 -2,1 -2,8 11 6 22 12 NW 60
24.06.2018 10:00:00 -2,9 -3,9 14 8 27 15 NNW 60
24.06.2018 09:00:00 -3,2 -4,0 18 10 29 16 N 18
24.06.2018 08:00:00 -2,7 -3,2 16 9 25 13 N 0
24.06.2018 07:00:00 -2,6 -3,0 19 10 32 18 N 0
24.06.2018 06:00:00 -2,6 -3,0 20 11 35 19 N 0
24.06.2018 05:00:00 -2,9 -3,3 19 10 33 18 NNW 0
24.06.2018 04:00:00 -3,2 -3,7 18 10 38 21 NNW 0
24.06.2018 03:00:00 -3,2 -3,7 21 11 34 18 NNW 0
24.06.2018 02:00:00 -2,9 -3,3 16 9 38 20 NNW 0
24.06.2018 01:00:00 -3,1 -3,5 16 9 36 19 N 0
24.06.2018 00:00:00 -3,0 -3,5 24 13 36 19 NNW 0
23.06.2018 23:00:00 -3,3 -3,8 24 13 38 20 NNW 0
23.06.2018 22:00:00 -3,0 -3,5 23 12 33 18 NNW 0
23.06.2018 21:00:00 -2,6 -3,1 22 12 33 18 NNW 0
23.06.2018 20:00:00 -2,7 -3,2 18 10 32 18 N 0
23.06.2018 19:00:00 -2,0 -2,4 15 8 34 18 N 0
23.06.2018 18:00:00 -1,6 -1,9 18 10 36 19 NNW 0
23.06.2018 17:00:00 -1,4 -1,8 16 9 39 21 NNW 11
23.06.2018 16:00:00 -1,6 -2,1 15 8 35 19 N 18
23.06.2018 15:00:00 -1,6 -2,3 13 7 25 14 N 5
23.06.2018 14:00:00 -2,0 -2,8 15 8 28 15 N 30
23.06.2018 13:00:00 -2,2 -3,6 8 4 19 11 SW 52
23.06.2018 12:00:00 -2,5 -5,4 7 4 20 11 WSW 59
23.06.2018 11:00:00 -3,7 -7,7 11 6 24 13 N 60
23.06.2018 10:00:00 -5,1 -11,8 13 7 26 14 N 60
23.06.2018 09:00:00 -5,8 -10,2 18 10 33 18 N 60
23.06.2018 08:00:00 -5,4 -6,5 21 11 33 18 NW 40
23.06.2018 07:00:00 -5,5 -5,9 23 12 36 19 NNW 0
23.06.2018 06:00:00 -5,9 -6,4 27 15 44 24 NNW 0
23.06.2018 05:00:00 -5,9 -6,5 29 15 45 25 NNW 0
23.06.2018 04:00:00 -6,0 -6,5 22 12 41 22 NW 0
23.06.2018 03:00:00 -6,0 -6,4 21 12 39 21 NNW 0
23.06.2018 02:00:00 -5,7 -6,0 24 13 39 21 NNW 0
23.06.2018 01:00:00 -5,5 -5,7 23 12 40 21 NNW 0
23.06.2018 00:00:00 -5,2 -5,4 22 12 37 20 NNW 0
22.06.2018 23:00:00 -5,1 -5,2 19 10 39 21 NNW 0
22.06.2018 22:00:00 -4,9 -5,2 22 12 36 20 NNW 0
22.06.2018 21:00:00 -4,6 -4,8 21 11 41 22 N 0
22.06.2018 20:00:00 -4,3 -4,7 22 12 37 20 NNW 0
22.06.2018 19:00:00 -4,0 -4,4 21 11 41 22 N 0
22.06.2018 18:00:00 -3,7 -4,1 19 11 38 21 N 0
22.06.2018 17:00:00 -3,9 -4,3 17 9 40 22 NNW 0
22.06.2018 16:00:00 -3,0 -3,5 21 11 40 22 N 3
22.06.2018 15:00:00 -3,4 -3,9 18 10 40 21 NNW 3
22.06.2018 14:00:00 -3,6 -4,1 16 9 37 20 N 20
22.06.2018 13:00:00 -4,0 -4,6 16 9 50 27 N 14
22.06.2018 12:00:00 -4,5 -5,3 26 14 53 29 NW 43
22.06.2018 11:00:00 -4,0 -4,8 22 12 47 26 NNW 28
22.06.2018 10:00:00 -4,2 -4,8 29 16 53 28 WNW 27
22.06.2018 09:00:00 -4,2 -4,8 30 16 45 25 NW 13
22.06.2018 08:00:00 -4,1 -4,8 29 15 50 27 NW 14
22.06.2018 07:00:00 -3,8 -4,5 31 17 56 30 NNW 15
22.06.2018 06:00:00 -4,1 -5,0 32 17 56 31 NNW 1
22.06.2018 05:00:00 -1,5 -1,7 42 23 61 33 NNW 0
22.06.2018 04:00:00 -0,2 -0,6 32 18 46 25 N 0
22.06.2018 03:00:00 0,3 0,1 36 19 54 29 N 0
22.06.2018 02:00:00 1,5 1,4 27 14 39 21 WNW 0
22.06.2018 01:00:00 2,1 2,0 12 6 26 14 N 0
22.06.2018 00:00:00 2,9 2,9 15 8 37 20 NNW 0
21.06.2018 23:00:00 3,6 3,6 17 9 34 19 NW 0
21.06.2018 22:00:00 3,9 3,8 19 11 41 22 N 0
21.06.2018 21:00:00 4,0 3,8 23 12 42 23 NNW 0
21.06.2018 20:00:00 4,5 4,5 21 11 45 25 NW 1
21.06.2018 19:00:00 5,0 4,9 19 11 43 23 NNW 0
21.06.2018 18:00:00 5,2 5,1 18 10 39 21 NNW 0
21.06.2018 17:00:00 6,5 6,3 23 12 43 23 NNW 2
21.06.2018 16:00:00 6,3 6,0 26 14 40 21 NNW 1
21.06.2018 15:00:00 6,9 6,6 15 8 28 15 NNW 24
21.06.2018 14:00:00 8,2 3,1 13 7 25 14 SW 24
21.06.2018 13:00:00 7,7 3,4 14 8 38 20 W 47
21.06.2018 12:00:00 5,9 3,8 12 7 34 18 NW 33
21.06.2018 11:00:00 4,9 3,6 18 10 47 25 W 48
21.06.2018 10:00:00 4,9 4,3 23 13 42 23 NW 5
21.06.2018 09:00:00 4,9 4,5 26 14 47 26 WNW 4
21.06.2018 08:00:00 4,8 4,5 29 16 47 26 WNW 0
21.06.2018 07:00:00 4,5 4,0 25 13 42 23 WNW 52
21.06.2018 06:00:00 5,3 0,5 25 14 42 23 W 32
21.06.2018 05:00:00 5,5 0,2 20 11 31 17 WSW 0
21.06.2018 04:00:00 5,7 -0,2 21 11 29 16 W 0
21.06.2018 03:00:00 5,7 -0,1 23 12 28 15 W 0
21.06.2018 02:00:00 6,2 -0,4 22 12 27 15 W 0
21.06.2018 01:00:00 6,3 -0,6 24 13 29 15 W 0
21.06.2018 00:00:00 6,2 0,2 15 8 24 13 WNW 0
20.06.2018 23:00:00 6,7 0,1 22 12 24 13 WNW 0
20.06.2018 22:00:00 6,5 -0,3 17 9 26 14 WNW 30
20.06.2018 21:00:00 5,6 2,3 18 10 22 12 NW 42
20.06.2018 20:00:00 6,6 3,9 10 6 24 13 NNW 31
20.06.2018 19:00:00 7,1 5,3 10 5 23 13 N 10
20.06.2018 18:00:00 8,2 6,9 9 5 21 12 N 12
20.06.2018 17:00:00 8,4 5,8 7 4 16 9 N 24
20.06.2018 16:00:00 8,3 6,8 8 4 16 9 NNW 32
20.06.2018 15:00:00 9,8 5,5 8 4 17 9 SSW 49
20.06.2018 14:00:00 8,5 5,2 8 4 16 9 SSE 30
20.06.2018 13:00:00 9,3 3,5 6 3 16 8 S 44
20.06.2018 12:00:00 9,1 0,9 7 4 13 7 NE 60
20.06.2018 11:00:00 7,8 -1,2 5 3 10 5 NNE 60
20.06.2018 10:00:00 8,3 -2,2 6 3 8 4 NNE 60
20.06.2018 09:00:00 10,6 -0,3 8 4 13 7 ESE 60
20.06.2018 08:00:00 8,0 -0,5 8 5 12 7 ESE 60
20.06.2018 07:00:00 6,4 -0,7 11 6 19 10 NNE 60
20.06.2018 06:00:00 6,2 -0,6 11 6 18 10 NNE 25
20.06.2018 05:00:00 5,4 -0,7 10 5 20 11 N 0
20.06.2018 04:00:00 5,7 -0,8 14 7 24 13 N 0
20.06.2018 03:00:00 5,8 -2,0 15 8 24 13 NNE 0
20.06.2018 02:00:00 5,4 -2,0 11 6 23 13 ENE 0
20.06.2018 01:00:00 5,1 -4,7 14 8 31 17 N 0
20.06.2018 00:00:00 5,4 -4,4 24 13 30 16 N 0
19.06.2018 23:00:00 4,4 -0,1 12 7 18 10 N 0
19.06.2018 22:00:00 4,4 0,1 8 4 25 14 N 22
19.06.2018 21:00:00 4,5 0,5 14 7 22 12 N 26
19.06.2018 20:00:00 4,3 4,0 8 5 22 12 N 9
19.06.2018 19:00:00 3,8 3,2 9 5 20 11 N 5
19.06.2018 18:00:00 4,9 4,6 10 6 21 11 N 33
19.06.2018 17:00:00 3,9 2,1 10 5 24 13 N 24
19.06.2018 16:00:00 4,4 2,0 5 3 16 8 NNE 14
19.06.2018 15:00:00 5,2 3,6 4 2 9 5 N 7
19.06.2018 14:00:00 4,1 2,8 6 4 16 9 NNE 32
19.06.2018 13:00:00 3,1 1,1 10 5 24 13 N 50
19.06.2018 12:00:00 3,4 2,1 8 5 20 11 NNE 50
19.06.2018 11:00:00 3,5 -6,2 17 9 31 17 N 60
19.06.2018 10:00:00 1,9 -2,0 16 9 29 16 NNW 17
19.06.2018 09:00:00 0,9 0,9 11 6 22 12 NNW 0
19.06.2018 08:00:00 0,8 0,6 16 9 24 13 N 0
19.06.2018 07:00:00 0,5 0,4 16 8 32 17 N 11
19.06.2018 06:00:00 -0,2 -0,7 22 12 31 17 NNW 6
19.06.2018 05:00:00 0,4 0,3 21 11 29 15 N 0
19.06.2018 04:00:00 0,9 0,9 15 8 29 16 NNW 0
19.06.2018 03:00:00 1,0 0,9 22 12 32 17 N 0
19.06.2018 02:00:00 0,5 0,3 20 11 32 17 NW 0
19.06.2018 01:00:00 1,1 1,1 19 10 32 17 WNW 0
19.06.2018 00:00:00 1,3 1,3 19 11 28 15 WNW 0
18.06.2018 23:00:00 1,7 1,7 11 6 24 13 NNW 0
18.06.2018 22:00:00 1,7 1,6 13 7 25 14 N 0
18.06.2018 21:00:00 1,6 1,5 9 5 21 11 N 0
18.06.2018 20:00:00 1,6 1,5 11 6 23 12 N 0
18.06.2018 19:00:00 1,5 1,3 10 5 21 12 N 0
18.06.2018 18:00:00 1,6 1,1 9 5 16 9 N 1
18.06.2018 17:00:00 1,6 1,0 10 5 18 10 N 0
18.06.2018 16:00:00 1,9 1,5 8 4 11 6 W 0
18.06.2018 15:00:00 1,6 1,3 5 3 10 5 N 0
18.06.2018 14:00:00 1,5 0,9 5 3 18 10 N 0
18.06.2018 13:00:00 1,4 0,6 8 4 18 10 NNW 0
18.06.2018 12:00:00 1,3 0,9 8 4 16 9 N 5
18.06.2018 11:00:00 1,3 1,0 10 5 16 9 W 30

tt = temperature
td = dewpoint
ff = wind speed
fx = gusts
dd = wind direction
sd = sunshine duration

Next stations